Weather at Campo David Airport

Public forecast

Using degrees Celsius for public forecast. Weather courtesy of forecast.io.

Closest aviation weather report (METAR) to Campo David Airport

Report is more than 2 hours old.

Closest report is Carlos Rovirosa Pérez International Airport, 40.1 nm (74.3 km) ENE. Retrieved 2020/10/25 02:48 UTC (2 hours ago):

MMVA 250248Z 00000KT 6SM SCT015TCU BKN060 25/24 A2995 RMK SLP156 52023 907 8/22/

Closest aviation forecast (TAF) to Campo David Airport

Forecast is more than 6 hours old.

Closest forecast is Carlos Rovirosa Pérez International Airport, 40.1 nm (74.3 km) ENE. Retrieved 2020/10/24 18:51 UTC (10 hours ago):

TAF MMVA 241650Z 2418/2518 04015KT P6SM RA BKN015CB OVC080 TEMPO 2420/2424 2SM TSRA BKN005 BECMG 2501/2502 34015KT TEMPO 2501/2505 3SM -RA FM250900 36015KT 2SM DZ BR OVC005 FM251600 02015KT 3SM HZ SCT010 OVC060